sensor_id;sensor_type;location;lat;lon;timestamp;P1;durP1;ratioP1;P2;durP2;ratioP2
8594;SDS011;4335;48.860;9.198;2023-03-13T00:02:07;9.00;;;3.67;;
8594;SDS011;4335;48.860;9.198;2023-03-13T00:04:34;6.10;;;3.30;;
8594;SDS011;4335;48.860;9.198;2023-03-13T00:07:02;7.47;;;3.40;;
8594;SDS011;4335;48.860;9.198;2023-03-13T00:09:30;10.37;;;3.40;;
8594;SDS011;4335;48.860;9.198;2023-03-13T00:11:57;8.17;;;3.83;;
8594;SDS011;4335;48.860;9.198;2023-03-13T00:14:38;5.73;;;2.97;;
8594;SDS011;4335;48.860;9.198;2023-03-13T00:17:05;8.77;;;3.60;;
8594;SDS011;4335;48.860;9.198;2023-03-13T00:19:33;11.20;;;3.00;;
8594;SDS011;4335;48.860;9.198;2023-03-13T00:22:00;6.77;;;2.83;;
8594;SDS011;4335;48.860;9.198;2023-03-13T00:24:30;7.63;;;3.97;;
8594;SDS011;4335;48.860;9.198;2023-03-13T00:26:58;8.33;;;2.70;;
8594;SDS011;4335;48.860;9.198;2023-03-13T00:29:32;7.63;;;3.50;;
8594;SDS011;4335;48.860;9.198;2023-03-13T00:32:04;9.13;;;3.93;;
8594;SDS011;4335;48.860;9.198;2023-03-13T00:34:32;8.53;;;3.00;;
8594;SDS011;4335;48.860;9.198;2023-03-13T00:37:02;7.97;;;3.23;;
8594;SDS011;4335;48.860;9.198;2023-03-13T00:39:29;5.00;;;3.23;;
8594;SDS011;4335;48.860;9.198;2023-03-13T00:42:00;8.13;;;3.17;;
8594;SDS011;4335;48.860;9.198;2023-03-13T00:44:28;11.30;;;3.97;;
8594;SDS011;4335;48.860;9.198;2023-03-13T00:46:58;10.87;;;3.77;;
8594;SDS011;4335;48.860;9.198;2023-03-13T00:49:27;8.83;;;3.70;;
8594;SDS011;4335;48.860;9.198;2023-03-13T00:51:57;7.47;;;3.97;;
8594;SDS011;4335;48.860;9.198;2023-03-13T00:54:25;10.60;;;3.30;;
8594;SDS011;4335;48.860;9.198;2023-03-13T00:56:52;18.03;;;7.97;;
8594;SDS011;4335;48.860;9.198;2023-03-13T00:59:19;8.40;;;3.30;;
8594;SDS011;4335;48.860;9.198;2023-03-13T01:01:59;6.43;;;4.00;;
8594;SDS011;4335;48.860;9.198;2023-03-13T01:04:36;8.80;;;3.63;;
8594;SDS011;4335;48.860;9.198;2023-03-13T01:07:09;9.83;;;3.57;;
8594;SDS011;4335;48.860;9.198;2023-03-13T01:09:40;9.60;;;3.43;;
8594;SDS011;4335;48.860;9.198;2023-03-13T01:12:10;9.57;;;4.27;;
8594;SDS011;4335;48.860;9.198;2023-03-13T01:14:38;9.60;;;3.50;;
8594;SDS011;4335;48.860;9.198;2023-03-13T01:17:08;8.60;;;3.77;;
8594;SDS011;4335;48.860;9.198;2023-03-13T01:19:45;8.33;;;3.57;;
8594;SDS011;4335;48.860;9.198;2023-03-13T01:22:15;5.60;;;3.07;;
8594;SDS011;4335;48.860;9.198;2023-03-13T01:24:46;8.80;;;3.50;;
8594;SDS011;4335;48.860;9.198;2023-03-13T01:27:16;8.03;;;3.37;;
8594;SDS011;4335;48.860;9.198;2023-03-13T01:29:44;6.43;;;3.67;;
8594;SDS011;4335;48.860;9.198;2023-03-13T01:32:14;9.07;;;3.67;;
8594;SDS011;4335;48.860;9.198;2023-03-13T01:34:43;7.23;;;3.50;;
8594;SDS011;4335;48.860;9.198;2023-03-13T01:37:10;8.73;;;3.40;;
8594;SDS011;4335;48.860;9.198;2023-03-13T01:39:38;7.57;;;3.40;;
8594;SDS011;4335;48.860;9.198;2023-03-13T01:42:05;9.90;;;3.47;;
8594;SDS011;4335;48.860;9.198;2023-03-13T01:44:47;9.07;;;3.60;;
8594;SDS011;4335;48.860;9.198;2023-03-13T01:47:22;10.37;;;4.00;;
8594;SDS011;4335;48.860;9.198;2023-03-13T01:49:57;5.27;;;3.30;;
8594;SDS011;4335;48.860;9.198;2023-03-13T01:52:25;8.80;;;3.60;;
8594;SDS011;4335;48.860;9.198;2023-03-13T01:57:50;6.23;;;3.43;;
8594;SDS011;4335;48.860;9.198;2023-03-13T02:00:21;7.07;;;3.07;;
8594;SDS011;4335;48.860;9.198;2023-03-13T02:02:52;7.27;;;3.37;;
8594;SDS011;4335;48.860;9.198;2023-03-13T02:05:24;8.00;;;3.23;;
8594;SDS011;4335;48.860;9.198;2023-03-13T02:07:54;10.17;;;4.13;;
8594;SDS011;4335;48.860;9.198;2023-03-13T02:10:26;8.47;;;4.30;;
8594;SDS011;4335;48.860;9.198;2023-03-13T02:12:56;10.00;;;4.20;;
8594;SDS011;4335;48.860;9.198;2023-03-13T02:15:27;6.80;;;3.50;;
8594;SDS011;4335;48.860;9.198;2023-03-13T02:17:56;5.47;;;3.00;;
8594;SDS011;4335;48.860;9.198;2023-03-13T02:20:26;9.97;;;4.13;;
8594;SDS011;4335;48.860;9.198;2023-03-13T02:22:58;8.33;;;3.50;;
8594;SDS011;4335;48.860;9.198;2023-03-13T02:25:37;6.97;;;3.57;;
8594;SDS011;4335;48.860;9.198;2023-03-13T02:28:09;11.33;;;4.23;;
8594;SDS011;4335;48.860;9.198;2023-03-13T02:30:48;12.43;;;4.47;;
8594;SDS011;4335;48.860;9.198;2023-03-13T02:33:19;8.13;;;3.33;;
8594;SDS011;4335;48.860;9.198;2023-03-13T02:35:48;7.17;;;2.80;;
8594;SDS011;4335;48.860;9.198;2023-03-13T02:38:16;6.53;;;2.90;;
8594;SDS011;4335;48.860;9.198;2023-03-13T02:40:49;6.47;;;3.23;;
8594;SDS011;4335;48.860;9.198;2023-03-13T02:43:25;10.63;;;3.87;;
8594;SDS011;4335;48.860;9.198;2023-03-13T02:46:01;7.80;;;3.20;;
8594;SDS011;4335;48.860;9.198;2023-03-13T02:48:31;3.63;;;2.40;;
8594;SDS011;4335;48.860;9.198;2023-03-13T02:51:04;6.77;;;2.73;;
8594;SDS011;4335;48.860;9.198;2023-03-13T02:53:34;8.67;;;2.73;;
8594;SDS011;4335;48.860;9.198;2023-03-13T02:56:05;6.60;;;2.93;;
8594;SDS011;4335;48.860;9.198;2023-03-13T02:58:39;7.43;;;3.03;;
8594;SDS011;4335;48.860;9.198;2023-03-13T03:01:07;5.50;;;2.47;;
8594;SDS011;4335;48.860;9.198;2023-03-13T03:03:37;7.13;;;2.63;;
8594;SDS011;4335;48.860;9.198;2023-03-13T03:06:11;4.47;;;2.50;;
8594;SDS011;4335;48.860;9.198;2023-03-13T03:08:38;5.43;;;2.90;;
8594;SDS011;4335;48.860;9.198;2023-03-13T03:11:09;5.87;;;2.10;;
8594;SDS011;4335;48.860;9.198;2023-03-13T03:13:37;6.67;;;2.30;;
8594;SDS011;4335;48.860;9.198;2023-03-13T03:16:05;6.60;;;2.60;;
8594;SDS011;4335;48.860;9.198;2023-03-13T03:18:32;8.73;;;2.53;;
8594;SDS011;4335;48.860;9.198;2023-03-13T03:21:00;6.20;;;2.50;;
8594;SDS011;4335;48.860;9.198;2023-03-13T03:23:30;6.83;;;2.30;;
8594;SDS011;4335;48.860;9.198;2023-03-13T03:26:04;7.13;;;2.87;;
8594;SDS011;4335;48.860;9.198;2023-03-13T03:28:35;4.83;;;2.17;;
8594;SDS011;4335;48.860;9.198;2023-03-13T03:31:02;5.33;;;2.33;;
8594;SDS011;4335;48.860;9.198;2023-03-13T03:33:30;7.60;;;2.53;;
8594;SDS011;4335;48.860;9.198;2023-03-13T03:36:00;7.77;;;2.20;;
8594;SDS011;4335;48.860;9.198;2023-03-13T03:38:35;4.43;;;2.20;;
8594;SDS011;4335;48.860;9.198;2023-03-13T03:41:04;4.60;;;2.10;;
8594;SDS011;4335;48.860;9.198;2023-03-13T03:43:35;6.17;;;2.60;;
8594;SDS011;4335;48.860;9.198;2023-03-13T03:46:03;3.87;;;1.50;;
8594;SDS011;4335;48.860;9.198;2023-03-13T03:48:33;6.07;;;2.00;;
8594;SDS011;4335;48.860;9.198;2023-03-13T03:51:02;4.80;;;1.80;;
8594;SDS011;4335;48.860;9.198;2023-03-13T03:53:36;4.83;;;1.67;;
8594;SDS011;4335;48.860;9.198;2023-03-13T03:56:04;4.30;;;1.50;;
8594;SDS011;4335;48.860;9.198;2023-03-13T03:58:32;2.93;;;1.93;;
8594;SDS011;4335;48.860;9.198;2023-03-13T04:01:01;3.23;;;1.50;;
8594;SDS011;4335;48.860;9.198;2023-03-13T04:03:29;3.93;;;1.57;;
8594;SDS011;4335;48.860;9.198;2023-03-13T04:06:03;3.87;;;1.50;;
8594;SDS011;4335;48.860;9.198;2023-03-13T04:08:34;4.33;;;1.50;;
8594;SDS011;4335;48.860;9.198;2023-03-13T04:11:02;1.20;;;1.10;;
8594;SDS011;4335;48.860;9.198;2023-03-13T04:13:29;4.03;;;1.77;;
8594;SDS011;4335;48.860;9.198;2023-03-13T04:16:06;4.87;;;1.97;;
8594;SDS011;4335;48.860;9.198;2023-03-13T04:18:34;3.90;;;1.67;;
8594;SDS011;4335;48.860;9.198;2023-03-13T04:21:02;5.80;;;1.73;;
8594;SDS011;4335;48.860;9.198;2023-03-13T04:23:30;4.83;;;1.97;;
8594;SDS011;4335;48.860;9.198;2023-03-13T04:25:58;4.63;;;1.67;;
8594;SDS011;4335;48.860;9.198;2023-03-13T04:28:31;3.27;;;1.87;;
8594;SDS011;4335;48.860;9.198;2023-03-13T04:30:58;2.90;;;1.30;;
8594;SDS011;4335;48.860;9.198;2023-03-13T04:33:27;2.40;;;1.10;;
8594;SDS011;4335;48.860;9.198;2023-03-13T04:36:01;1.60;;;1.20;;
8594;SDS011;4335;48.860;9.198;2023-03-13T04:38:28;1.63;;;0.90;;
8594;SDS011;4335;48.860;9.198;2023-03-13T04:41:01;2.67;;;1.40;;
8594;SDS011;4335;48.860;9.198;2023-03-13T04:43:32;2.33;;;1.13;;
8594;SDS011;4335;48.860;9.198;2023-03-13T04:46:02;1.87;;;1.17;;
8594;SDS011;4335;48.860;9.198;2023-03-13T04:48:31;1.20;;;1.00;;
8594;SDS011;4335;48.860;9.198;2023-03-13T04:50:59;1.70;;;1.13;;
8594;SDS011;4335;48.860;9.198;2023-03-13T04:53:26;2.03;;;1.40;;
8594;SDS011;4335;48.860;9.198;2023-03-13T04:55:57;1.10;;;1.00;;
8594;SDS011;4335;48.860;9.198;2023-03-13T04:58:24;1.90;;;1.00;;
8594;SDS011;4335;48.860;9.198;2023-03-13T05:00:52;1.40;;;1.20;;
8594;SDS011;4335;48.860;9.198;2023-03-13T05:03:23;1.23;;;1.10;;
8594;SDS011;4335;48.860;9.198;2023-03-13T05:05:52;3.37;;;0.93;;
8594;SDS011;4335;48.860;9.198;2023-03-13T05:08:20;2.90;;;1.30;;
8594;SDS011;4335;48.860;9.198;2023-03-13T05:10:50;1.33;;;0.90;;
8594;SDS011;4335;48.860;9.198;2023-03-13T05:13:17;1.50;;;1.20;;
8594;SDS011;4335;48.860;9.198;2023-03-13T05:15:51;1.50;;;1.00;;
8594;SDS011;4335;48.860;9.198;2023-03-13T05:18:18;1.13;;;1.00;;
8594;SDS011;4335;48.860;9.198;2023-03-13T05:20:46;1.20;;;0.90;;
8594;SDS011;4335;48.860;9.198;2023-03-13T05:23:20;1.33;;;1.10;;
8594;SDS011;4335;48.860;9.198;2023-03-13T05:25:48;1.30;;;0.90;;
8594;SDS011;4335;48.860;9.198;2023-03-13T05:28:15;1.60;;;1.07;;
8594;SDS011;4335;48.860;9.198;2023-03-13T05:30:49;1.53;;;1.00;;
8594;SDS011;4335;48.860;9.198;2023-03-13T05:33:19;1.10;;;0.80;;
8594;SDS011;4335;48.860;9.198;2023-03-13T05:35:57;1.50;;;1.30;;
8594;SDS011;4335;48.860;9.198;2023-03-13T05:38:25;1.00;;;1.00;;
8594;SDS011;4335;48.860;9.198;2023-03-13T05:40:52;1.00;;;0.90;;
8594;SDS011;4335;48.860;9.198;2023-03-13T05:43:19;1.60;;;1.10;;
8594;SDS011;4335;48.860;9.198;2023-03-13T05:45:47;1.50;;;1.10;;
8594;SDS011;4335;48.860;9.198;2023-03-13T05:48:14;3.17;;;1.30;;
8594;SDS011;4335;48.860;9.198;2023-03-13T05:50:41;1.50;;;1.10;;
8594;SDS011;4335;48.860;9.198;2023-03-13T05:53:10;1.37;;;1.13;;
8594;SDS011;4335;48.860;9.198;2023-03-13T05:55:38;1.97;;;1.70;;
8594;SDS011;4335;48.860;9.198;2023-03-13T05:58:05;1.40;;;1.27;;
8594;SDS011;4335;48.860;9.198;2023-03-13T06:00:33;2.20;;;1.17;;
8594;SDS011;4335;48.860;9.198;2023-03-13T06:03:00;2.80;;;1.23;;
8594;SDS011;4335;48.860;9.198;2023-03-13T06:05:27;2.77;;;1.43;;
8594;SDS011;4335;48.860;9.198;2023-03-13T06:07:55;2.33;;;0.90;;
8594;SDS011;4335;48.860;9.198;2023-03-13T06:10:29;2.47;;;1.40;;
8594;SDS011;4335;48.860;9.198;2023-03-13T06:13:00;2.30;;;1.43;;
8594;SDS011;4335;48.860;9.198;2023-03-13T06:15:27;1.50;;;1.33;;
8594;SDS011;4335;48.860;9.198;2023-03-13T06:17:55;2.00;;;1.20;;
8594;SDS011;4335;48.860;9.198;2023-03-13T06:20:25;1.57;;;1.00;;
8594;SDS011;4335;48.860;9.198;2023-03-13T06:22:53;1.37;;;1.13;;
8594;SDS011;4335;48.860;9.198;2023-03-13T06:25:23;1.47;;;1.20;;
8594;SDS011;4335;48.860;9.198;2023-03-13T06:27:54;1.20;;;0.90;;
8594;SDS011;4335;48.860;9.198;2023-03-13T06:30:21;1.03;;;0.93;;
8594;SDS011;4335;48.860;9.198;2023-03-13T06:32:52;1.10;;;0.90;;
8594;SDS011;4335;48.860;9.198;2023-03-13T06:35:23;0.90;;;0.80;;
8594;SDS011;4335;48.860;9.198;2023-03-13T06:37:51;1.40;;;1.20;;
8594;SDS011;4335;48.860;9.198;2023-03-13T06:40:19;2.67;;;1.73;;
8594;SDS011;4335;48.860;9.198;2023-03-13T06:42:49;2.03;;;1.20;;
8594;SDS011;4335;48.860;9.198;2023-03-13T06:45:18;1.47;;;1.10;;
8594;SDS011;4335;48.860;9.198;2023-03-13T06:47:45;1.27;;;0.90;;
8594;SDS011;4335;48.860;9.198;2023-03-13T06:50:15;1.33;;;1.10;;
8594;SDS011;4335;48.860;9.198;2023-03-13T06:52:43;1.77;;;1.13;;
8594;SDS011;4335;48.860;9.198;2023-03-13T06:55:11;1.83;;;1.20;;
8594;SDS011;4335;48.860;9.198;2023-03-13T06:57:39;3.70;;;1.67;;
8594;SDS011;4335;48.860;9.198;2023-03-13T07:00:09;1.33;;;1.17;;
8594;SDS011;4335;48.860;9.198;2023-03-13T07:02:43;1.33;;;0.90;;
8594;SDS011;4335;48.860;9.198;2023-03-13T07:05:11;1.67;;;1.20;;
8594;SDS011;4335;48.860;9.198;2023-03-13T07:07:38;1.87;;;1.30;;
8594;SDS011;4335;48.860;9.198;2023-03-13T07:10:06;2.27;;;1.30;;
8594;SDS011;4335;48.860;9.198;2023-03-13T07:12:38;1.37;;;1.27;;
8594;SDS011;4335;48.860;9.198;2023-03-13T07:15:06;1.10;;;1.00;;
8594;SDS011;4335;48.860;9.198;2023-03-13T07:17:36;0.77;;;0.77;;
8594;SDS011;4335;48.860;9.198;2023-03-13T07:20:12;2.20;;;0.80;;
8594;SDS011;4335;48.860;9.198;2023-03-13T07:22:39;1.20;;;1.00;;
8594;SDS011;4335;48.860;9.198;2023-03-13T07:25:10;1.90;;;1.40;;
8594;SDS011;4335;48.860;9.198;2023-03-13T07:27:37;3.03;;;2.00;;
8594;SDS011;4335;48.860;9.198;2023-03-13T07:30:05;2.57;;;1.20;;
8594;SDS011;4335;48.860;9.198;2023-03-13T07:32:40;2.13;;;1.10;;
8594;SDS011;4335;48.860;9.198;2023-03-13T07:35:08;1.23;;;0.93;;
8594;SDS011;4335;48.860;9.198;2023-03-13T07:37:35;0.77;;;0.77;;
8594;SDS011;4335;48.860;9.198;2023-03-13T07:40:06;2.23;;;1.47;;
8594;SDS011;4335;48.860;9.198;2023-03-13T07:42:43;4.03;;;2.23;;
8594;SDS011;4335;48.860;9.198;2023-03-13T07:45:11;1.40;;;1.27;;
8594;SDS011;4335;48.860;9.198;2023-03-13T07:47:46;1.83;;;1.60;;
8594;SDS011;4335;48.860;9.198;2023-03-13T07:50:13;1.97;;;1.17;;
8594;SDS011;4335;48.860;9.198;2023-03-13T07:52:41;1.50;;;1.17;;
8594;SDS011;4335;48.860;9.198;2023-03-13T07:55:08;1.97;;;1.30;;
8594;SDS011;4335;48.860;9.198;2023-03-13T07:57:41;1.20;;;1.00;;
8594;SDS011;4335;48.860;9.198;2023-03-13T08:00:09;1.17;;;1.00;;
8594;SDS011;4335;48.860;9.198;2023-03-13T08:02:50;1.17;;;0.90;;
8594;SDS011;4335;48.860;9.198;2023-03-13T08:05:18;1.37;;;0.87;;
8594;SDS011;4335;48.860;9.198;2023-03-13T08:07:49;2.13;;;1.00;;
8594;SDS011;4335;48.860;9.198;2023-03-13T08:10:16;0.90;;;0.90;;
8594;SDS011;4335;48.860;9.198;2023-03-13T08:12:50;2.27;;;1.23;;
8594;SDS011;4335;48.860;9.198;2023-03-13T08:15:19;2.03;;;1.20;;
8594;SDS011;4335;48.860;9.198;2023-03-13T08:17:51;1.77;;;0.80;;
8594;SDS011;4335;48.860;9.198;2023-03-13T08:20:24;1.30;;;1.20;;
8594;SDS011;4335;48.860;9.198;2023-03-13T08:22:55;1.37;;;1.00;;
8594;SDS011;4335;48.860;9.198;2023-03-13T08:25:24;1.90;;;1.10;;
8594;SDS011;4335;48.860;9.198;2023-03-13T08:27:52;1.20;;;1.00;;
8594;SDS011;4335;48.860;9.198;2023-03-13T08:30:23;2.17;;;1.20;;
8594;SDS011;4335;48.860;9.198;2023-03-13T08:32:55;1.77;;;1.53;;
8594;SDS011;4335;48.860;9.198;2023-03-13T08:35:22;1.30;;;1.10;;
8594;SDS011;4335;48.860;9.198;2023-03-13T08:37:53;1.17;;;1.07;;
8594;SDS011;4335;48.860;9.198;2023-03-13T08:40:20;1.80;;;1.10;;
8594;SDS011;4335;48.860;9.198;2023-03-13T08:42:47;1.53;;;1.40;;
8594;SDS011;4335;48.860;9.198;2023-03-13T08:45:22;1.60;;;1.23;;
8594;SDS011;4335;48.860;9.198;2023-03-13T08:47:51;2.47;;;1.20;;
8594;SDS011;4335;48.860;9.198;2023-03-13T08:50:23;3.17;;;1.40;;
8594;SDS011;4335;48.860;9.198;2023-03-13T08:52:50;2.47;;;1.90;;
8594;SDS011;4335;48.860;9.198;2023-03-13T08:55:20;1.10;;;1.00;;
8594;SDS011;4335;48.860;9.198;2023-03-13T08:57:48;3.03;;;1.63;;
8594;SDS011;4335;48.860;9.198;2023-03-13T09:00:18;2.33;;;1.20;;
8594;SDS011;4335;48.860;9.198;2023-03-13T09:02:46;1.97;;;1.50;;
8594;SDS011;4335;48.860;9.198;2023-03-13T09:05:13;2.43;;;1.40;;
8594;SDS011;4335;48.860;9.198;2023-03-13T09:07:42;2.83;;;1.70;;
8594;SDS011;4335;48.860;9.198;2023-03-13T09:10:15;2.90;;;1.90;;
8594;SDS011;4335;48.860;9.198;2023-03-13T09:12:43;1.30;;;0.97;;
8594;SDS011;4335;48.860;9.198;2023-03-13T09:15:12;1.73;;;1.47;;
8594;SDS011;4335;48.860;9.198;2023-03-13T09:17:40;2.07;;;1.10;;
8594;SDS011;4335;48.860;9.198;2023-03-13T09:20:08;2.93;;;1.70;;
8594;SDS011;4335;48.860;9.198;2023-03-13T09:22:49;1.90;;;1.20;;
8594;SDS011;4335;48.860;9.198;2023-03-13T09:25:17;1.80;;;1.37;;
8594;SDS011;4335;48.860;9.198;2023-03-13T09:27:44;2.50;;;1.10;;
8594;SDS011;4335;48.860;9.198;2023-03-13T09:30:12;1.23;;;1.13;;
8594;SDS011;4335;48.860;9.198;2023-03-13T09:32:39;3.50;;;1.57;;
8594;SDS011;4335;48.860;9.198;2023-03-13T09:35:07;2.07;;;1.60;;
8594;SDS011;4335;48.860;9.198;2023-03-13T09:37:41;3.57;;;1.67;;
8594;SDS011;4335;48.860;9.198;2023-03-13T09:40:12;3.13;;;1.20;;
8594;SDS011;4335;48.860;9.198;2023-03-13T09:42:43;3.03;;;1.93;;
8594;SDS011;4335;48.860;9.198;2023-03-13T09:45:21;3.30;;;1.33;;
8594;SDS011;4335;48.860;9.198;2023-03-13T09:47:58;3.00;;;1.63;;
8594;SDS011;4335;48.860;9.198;2023-03-13T09:50:30;1.73;;;1.40;;
8594;SDS011;4335;48.860;9.198;2023-03-13T09:53:01;1.60;;;1.50;;
8594;SDS011;4335;48.860;9.198;2023-03-13T09:55:43;2.13;;;1.40;;
8594;SDS011;4335;48.860;9.198;2023-03-13T09:58:13;2.53;;;1.97;;
8594;SDS011;4335;48.860;9.198;2023-03-13T10:00:44;1.87;;;1.30;;
8594;SDS011;4335;48.860;9.198;2023-03-13T10:03:19;1.57;;;1.30;;
8594;SDS011;4335;48.860;9.198;2023-03-13T10:05:53;3.07;;;1.33;;
8594;SDS011;4335;48.860;9.198;2023-03-13T10:08:24;4.63;;;1.60;;
8594;SDS011;4335;48.860;9.198;2023-03-13T10:10:57;2.00;;;1.40;;
8594;SDS011;4335;48.860;9.198;2023-03-13T10:13:38;2.53;;;1.63;;
8594;SDS011;4335;48.860;9.198;2023-03-13T10:16:14;3.27;;;1.63;;
8594;SDS011;4335;48.860;9.198;2023-03-13T10:18:48;1.93;;;1.60;;
8594;SDS011;4335;48.860;9.198;2023-03-13T10:21:20;2.90;;;1.80;;
8594;SDS011;4335;48.860;9.198;2023-03-13T10:23:54;2.27;;;1.40;;
8594;SDS011;4335;48.860;9.198;2023-03-13T10:26:32;2.60;;;1.50;;
8594;SDS011;4335;48.860;9.198;2023-03-13T10:29:17;1.43;;;1.33;;
8594;SDS011;4335;48.860;9.198;2023-03-13T10:31:53;1.30;;;1.20;;
8594;SDS011;4335;48.860;9.198;2023-03-13T10:34:26;2.83;;;1.47;;
8594;SDS011;4335;48.860;9.198;2023-03-13T10:36:58;1.40;;;1.30;;
8594;SDS011;4335;48.860;9.198;2023-03-13T10:39:33;2.43;;;1.67;;
8594;SDS011;4335;48.860;9.198;2023-03-13T10:42:16;2.17;;;1.50;;
8594;SDS011;4335;48.860;9.198;2023-03-13T10:44:47;1.50;;;1.20;;
8594;SDS011;4335;48.860;9.198;2023-03-13T10:47:15;4.10;;;1.50;;
8594;SDS011;4335;48.860;9.198;2023-03-13T10:49:48;3.17;;;1.70;;
8594;SDS011;4335;48.860;9.198;2023-03-13T10:52:31;4.20;;;1.70;;
8594;SDS011;4335;48.860;9.198;2023-03-13T10:55:01;4.17;;;1.80;;
8594;SDS011;4335;48.860;9.198;2023-03-13T10:57:37;4.07;;;1.50;;
8594;SDS011;4335;48.860;9.198;2023-03-13T11:00:22;2.23;;;2.03;;
8594;SDS011;4335;48.860;9.198;2023-03-13T11:03:00;3.00;;;1.67;;
8594;SDS011;4335;48.860;9.198;2023-03-13T11:05:37;2.57;;;1.43;;
8594;SDS011;4335;48.860;9.198;2023-03-13T11:08:11;3.50;;;1.40;;
8594;SDS011;4335;48.860;9.198;2023-03-13T11:10:56;2.53;;;1.60;;
8594;SDS011;4335;48.860;9.198;2023-03-13T11:13:32;3.57;;;2.23;;
8594;SDS011;4335;48.860;9.198;2023-03-13T11:16:03;2.20;;;1.80;;
8594;SDS011;4335;48.860;9.198;2023-03-13T11:21:52;2.07;;;1.37;;
8594;SDS011;4335;48.860;9.198;2023-03-13T11:24:35;1.77;;;1.40;;
8594;SDS011;4335;48.860;9.198;2023-03-13T11:27:14;3.17;;;2.27;;
8594;SDS011;4335;48.860;9.198;2023-03-13T11:29:53;2.57;;;2.00;;
8594;SDS011;4335;48.860;9.198;2023-03-13T11:32:37;1.90;;;1.60;;
8594;SDS011;4335;48.860;9.198;2023-03-13T11:35:14;2.53;;;1.80;;
8594;SDS011;4335;48.860;9.198;2023-03-13T11:37:58;2.80;;;1.80;;
8594;SDS011;4335;48.860;9.198;2023-03-13T11:40:30;3.20;;;1.93;;
8594;SDS011;4335;48.860;9.198;2023-03-13T11:43:11;2.80;;;1.60;;
8594;SDS011;4335;48.860;9.198;2023-03-13T11:52:12;2.87;;;1.90;;
8594;SDS011;4335;48.860;9.198;2023-03-13T11:55:08;3.03;;;1.63;;
8594;SDS011;4335;48.860;9.198;2023-03-13T11:58:00;3.37;;;2.47;;
8594;SDS011;4335;48.860;9.198;2023-03-13T12:00:39;2.20;;;1.87;;
8594;SDS011;4335;48.860;9.198;2023-03-13T12:03:16;5.17;;;1.87;;
8594;SDS011;4335;48.860;9.198;2023-03-13T12:05:47;5.73;;;1.73;;
8594;SDS011;4335;48.860;9.198;2023-03-13T12:08:20;4.53;;;1.70;;
8594;SDS011;4335;48.860;9.198;2023-03-13T12:11:00;3.30;;;2.00;;
8594;SDS011;4335;48.860;9.198;2023-03-13T12:13:41;4.40;;;1.70;;
8594;SDS011;4335;48.860;9.198;2023-03-13T12:16:13;3.50;;;1.70;;
8594;SDS011;4335;48.860;9.198;2023-03-13T12:18:46;2.10;;;1.60;;
8594;SDS011;4335;48.860;9.198;2023-03-13T12:21:17;1.70;;;1.57;;
8594;SDS011;4335;48.860;9.198;2023-03-13T12:23:51;3.23;;;1.80;;
8594;SDS011;4335;48.860;9.198;2023-03-13T12:26:32;3.93;;;2.80;;
8594;SDS011;4335;48.860;9.198;2023-03-13T12:29:10;2.70;;;1.57;;
8594;SDS011;4335;48.860;9.198;2023-03-13T12:31:43;1.50;;;1.30;;
8594;SDS011;4335;48.860;9.198;2023-03-13T12:34:26;1.97;;;1.43;;
8594;SDS011;4335;48.860;9.198;2023-03-13T12:37:00;2.83;;;1.87;;
8594;SDS011;4335;48.860;9.198;2023-03-13T12:39:36;3.77;;;1.63;;
8594;SDS011;4335;48.860;9.198;2023-03-13T12:42:22;2.87;;;1.73;;
8594;SDS011;4335;48.860;9.198;2023-03-13T12:45:00;1.93;;;1.50;;
8594;SDS011;4335;48.860;9.198;2023-03-13T12:47:29;1.90;;;1.40;;
8594;SDS011;4335;48.860;9.198;2023-03-13T12:50:08;1.73;;;1.50;;
8594;SDS011;4335;48.860;9.198;2023-03-13T12:53:06;1.70;;;1.60;;
8594;SDS011;4335;48.860;9.198;2023-03-13T12:56:09;2.03;;;1.50;;
8594;SDS011;4335;48.860;9.198;2023-03-13T12:59:01;2.77;;;1.37;;
8594;SDS011;4335;48.860;9.198;2023-03-13T13:01:32;3.30;;;1.60;;
8594;SDS011;4335;48.860;9.198;2023-03-13T13:04:05;2.60;;;1.80;;
8594;SDS011;4335;48.860;9.198;2023-03-13T13:06:50;1.70;;;1.60;;
8594;SDS011;4335;48.860;9.198;2023-03-13T13:09:26;2.20;;;1.33;;
8594;SDS011;4335;48.860;9.198;2023-03-13T13:11:56;2.47;;;1.50;;
8594;SDS011;4335;48.860;9.198;2023-03-13T13:17:56;2.50;;;1.60;;
8594;SDS011;4335;48.860;9.198;2023-03-13T13:20:47;3.57;;;1.50;;
8594;SDS011;4335;48.860;9.198;2023-03-13T13:23:27;1.27;;;1.17;;
8594;SDS011;4335;48.860;9.198;2023-03-13T13:32:06;2.03;;;1.73;;
8594;SDS011;4335;48.860;9.198;2023-03-13T13:34:53;2.63;;;1.50;;
8594;SDS011;4335;48.860;9.198;2023-03-13T13:37:25;2.80;;;1.30;;
8594;SDS011;4335;48.860;9.198;2023-03-13T13:42:55;1.97;;;1.73;;
8594;SDS011;4335;48.860;9.198;2023-03-13T13:45:31;1.93;;;1.50;;
8594;SDS011;4335;48.860;9.198;2023-03-13T13:53:56;3.00;;;1.70;;
8594;SDS011;4335;48.860;9.198;2023-03-13T13:56:42;2.00;;;1.10;;
8594;SDS011;4335;48.860;9.198;2023-03-13T14:05:01;1.40;;;1.10;;
8594;SDS011;4335;48.860;9.198;2023-03-13T14:07:40;1.40;;;1.10;;
8594;SDS011;4335;48.860;9.198;2023-03-13T14:10:16;2.00;;;1.53;;
8594;SDS011;4335;48.860;9.198;2023-03-13T14:13:00;2.57;;;2.20;;
8594;SDS011;4335;48.860;9.198;2023-03-13T14:15:32;3.30;;;2.33;;
8594;SDS011;4335;48.860;9.198;2023-03-13T14:18:10;3.37;;;1.67;;
8594;SDS011;4335;48.860;9.198;2023-03-13T14:20:50;2.80;;;1.10;;
8594;SDS011;4335;48.860;9.198;2023-03-13T14:23:30;2.63;;;1.30;;
8594;SDS011;4335;48.860;9.198;2023-03-13T14:26:07;2.30;;;1.40;;
8594;SDS011;4335;48.860;9.198;2023-03-13T14:28:51;1.90;;;1.47;;
8594;SDS011;4335;48.860;9.198;2023-03-13T14:31:23;1.30;;;1.13;;
8594;SDS011;4335;48.860;9.198;2023-03-13T14:33:56;2.97;;;1.30;;
8594;SDS011;4335;48.860;9.198;2023-03-13T14:36:27;2.03;;;1.20;;
8594;SDS011;4335;48.860;9.198;2023-03-13T14:38:55;3.37;;;0.93;;
8594;SDS011;4335;48.860;9.198;2023-03-13T14:41:35;3.30;;;1.60;;
8594;SDS011;4335;48.860;9.198;2023-03-13T14:44:06;4.07;;;2.80;;
8594;SDS011;4335;48.860;9.198;2023-03-13T14:46:42;3.33;;;1.00;;
8594;SDS011;4335;48.860;9.198;2023-03-13T14:49:14;2.10;;;1.40;;
8594;SDS011;4335;48.860;9.198;2023-03-13T14:51:44;1.80;;;1.30;;
8594;SDS011;4335;48.860;9.198;2023-03-13T14:54:23;2.33;;;1.50;;
8594;SDS011;4335;48.860;9.198;2023-03-13T14:57:04;2.47;;;1.50;;
8594;SDS011;4335;48.860;9.198;2023-03-13T14:59:43;2.20;;;1.67;;
8594;SDS011;4335;48.860;9.198;2023-03-13T15:02:14;2.27;;;1.60;;
8594;SDS011;4335;48.860;9.198;2023-03-13T15:04:56;2.03;;;1.60;;
8594;SDS011;4335;48.860;9.198;2023-03-13T15:07:34;3.97;;;1.20;;
8594;SDS011;4335;48.860;9.198;2023-03-13T15:10:19;3.80;;;1.73;;
8594;SDS011;4335;48.860;9.198;2023-03-13T15:12:49;2.77;;;1.50;;
8594;SDS011;4335;48.860;9.198;2023-03-13T15:15:18;1.20;;;1.00;;
8594;SDS011;4335;48.860;9.198;2023-03-13T15:17:49;2.17;;;1.40;;
8594;SDS011;4335;48.860;9.198;2023-03-13T15:20:16;2.43;;;1.20;;
8594;SDS011;4335;48.860;9.198;2023-03-13T15:22:47;1.33;;;0.93;;
8594;SDS011;4335;48.860;9.198;2023-03-13T15:25:16;2.13;;;1.60;;
8594;SDS011;4335;48.860;9.198;2023-03-13T15:27:45;2.13;;;1.60;;
8594;SDS011;4335;48.860;9.198;2023-03-13T15:30:16;2.97;;;1.77;;
8594;SDS011;4335;48.860;9.198;2023-03-13T15:32:50;2.67;;;1.23;;
8594;SDS011;4335;48.860;9.198;2023-03-13T15:35:22;3.00;;;1.13;;
8594;SDS011;4335;48.860;9.198;2023-03-13T15:37:52;1.17;;;1.07;;
8594;SDS011;4335;48.860;9.198;2023-03-13T15:40:20;1.53;;;1.17;;
8594;SDS011;4335;48.860;9.198;2023-03-13T15:42:51;1.43;;;1.20;;
8594;SDS011;4335;48.860;9.198;2023-03-13T15:45:21;3.03;;;1.70;;
8594;SDS011;4335;48.860;9.198;2023-03-13T15:47:48;2.50;;;1.10;;
8594;SDS011;4335;48.860;9.198;2023-03-13T15:50:16;2.77;;;1.50;;
8594;SDS011;4335;48.860;9.198;2023-03-13T15:52:49;2.50;;;1.77;;
8594;SDS011;4335;48.860;9.198;2023-03-13T15:55:23;3.53;;;1.70;;
8594;SDS011;4335;48.860;9.198;2023-03-13T15:57:53;2.43;;;1.50;;
8594;SDS011;4335;48.860;9.198;2023-03-13T16:00:28;2.13;;;1.40;;
8594;SDS011;4335;48.860;9.198;2023-03-13T16:03:01;3.40;;;1.70;;
8594;SDS011;4335;48.860;9.198;2023-03-13T16:05:35;2.20;;;1.70;;
8594;SDS011;4335;48.860;9.198;2023-03-13T16:08:02;2.10;;;1.40;;
8594;SDS011;4335;48.860;9.198;2023-03-13T16:10:30;3.27;;;1.47;;
8594;SDS011;4335;48.860;9.198;2023-03-13T16:12:59;5.00;;;1.97;;
8594;SDS011;4335;48.860;9.198;2023-03-13T16:18:18;3.07;;;2.13;;
8594;SDS011;4335;48.860;9.198;2023-03-13T16:20:47;14.83;;;9.00;;
8594;SDS011;4335;48.860;9.198;2023-03-13T16:23:14;5.70;;;3.30;;
8594;SDS011;4335;48.860;9.198;2023-03-13T16:25:45;3.93;;;1.50;;